createdAt,value
2023-01-25T00:00:36.672Z,0.00
2023-01-25T00:01:37.038Z,0.00
2023-01-25T00:02:37.448Z,0.00
2023-01-25T00:03:37.762Z,0.00
2023-01-25T00:04:38.061Z,0.00
2023-01-25T00:05:38.461Z,0.00
2023-01-25T00:06:38.813Z,0.00
2023-01-25T00:07:39.185Z,0.00
2023-01-25T00:08:39.480Z,0.00
2023-01-25T00:09:39.835Z,0.00
2023-01-25T00:10:40.193Z,0.00
2023-01-25T00:11:40.627Z,0.00
2023-01-25T00:12:40.974Z,0.00
2023-01-25T00:13:41.266Z,0.00
2023-01-25T00:14:41.735Z,0.00
2023-01-25T00:15:41.953Z,0.00
2023-01-25T00:16:42.378Z,0.00
2023-01-25T00:17:42.687Z,0.00
2023-01-25T00:18:43.048Z,0.00
2023-01-25T00:19:43.379Z,0.00
2023-01-25T00:20:43.731Z,0.00
2023-01-25T00:21:44.063Z,0.00
2023-01-25T00:22:44.516Z,0.00
2023-01-25T00:23:44.874Z,0.00
2023-01-25T00:24:45.175Z,0.00
2023-01-25T00:25:45.549Z,0.00
2023-01-25T00:26:45.874Z,0.00
2023-01-25T00:27:46.263Z,0.00
2023-01-25T00:28:46.643Z,0.00
2023-01-25T00:29:46.988Z,0.00
2023-01-25T00:30:47.325Z,0.00
2023-01-25T00:31:47.801Z,0.00
2023-01-25T00:32:48.229Z,0.00
2023-01-25T00:33:48.451Z,0.00
2023-01-25T00:34:48.785Z,0.00
2023-01-25T00:35:49.162Z,0.00
2023-01-25T00:36:49.495Z,0.00
2023-01-25T00:37:50.015Z,0.00
2023-01-25T00:38:50.196Z,0.00
2023-01-25T00:39:50.595Z,0.00
2023-01-25T00:40:50.942Z,0.00
2023-01-25T00:41:51.327Z,0.00
2023-01-25T00:42:51.674Z,0.00
2023-01-25T00:43:52.004Z,0.00
2023-01-25T00:44:52.365Z,0.00
2023-01-25T00:45:52.787Z,0.00
2023-01-25T00:46:53.082Z,0.00
2023-01-25T00:47:53.461Z,0.00
2023-01-25T00:48:53.755Z,0.00
2023-01-25T00:49:54.118Z,0.00
2023-01-25T00:50:54.475Z,0.00
2023-01-25T00:51:54.835Z,0.00
2023-01-25T00:52:55.224Z,0.00
2023-01-25T00:53:55.550Z,0.00
2023-01-25T00:54:55.853Z,0.00
2023-01-25T00:55:56.253Z,0.00
2023-01-25T00:56:56.738Z,0.00
2023-01-25T00:57:56.936Z,0.00
2023-01-25T00:58:57.301Z,0.00
2023-01-25T00:59:57.648Z,0.00
2023-01-25T01:00:58.023Z,0.00
2023-01-25T01:01:58.476Z,0.00
2023-01-25T01:02:58.767Z,0.00
2023-01-25T01:03:59.060Z,0.00
2023-01-25T01:04:59.546Z,0.00
2023-01-25T01:05:59.767Z,0.00
2023-01-25T01:07:00.145Z,0.00
2023-01-25T01:08:00.547Z,0.00
2023-01-25T01:09:00.814Z,0.00
2023-01-25T01:10:01.180Z,0.00
2023-01-25T01:11:01.525Z,0.00
2023-01-25T01:12:01.925Z,0.00
2023-01-25T01:13:02.246Z,0.00
2023-01-25T01:14:02.615Z,0.00
2023-01-25T01:15:02.977Z,0.00
2023-01-25T01:16:03.331Z,0.00
2023-01-25T01:17:03.749Z,0.00
2023-01-25T01:18:04.043Z,0.00
2023-01-25T01:19:04.416Z,0.00
2023-01-25T01:20:04.750Z,0.00
2023-01-25T01:21:05.196Z,0.00
2023-01-25T01:22:05.498Z,0.00
2023-01-25T01:23:05.857Z,0.00
2023-01-25T01:24:06.272Z,0.00
2023-01-25T01:25:06.942Z,0.00
2023-01-25T01:26:06.952Z,0.00
2023-01-25T01:27:07.254Z,0.00
2023-01-25T01:28:07.611Z,0.00
2023-01-25T01:29:07.935Z,0.00
2023-01-25T01:30:08.301Z,0.00
2023-01-25T01:31:08.694Z,0.00
2023-01-25T01:32:09.229Z,0.00
2023-01-25T01:33:09.425Z,0.00
2023-01-25T01:34:09.807Z,0.00
2023-01-25T01:35:10.375Z,0.00
2023-01-25T01:36:10.455Z,0.00
2023-01-25T01:37:10.828Z,0.00
2023-01-25T01:38:11.223Z,0.00
2023-01-25T01:39:11.545Z,0.00
2023-01-25T01:40:11.911Z,0.00
2023-01-25T01:41:12.260Z,0.00
2023-01-25T01:42:12.630Z,0.00
2023-01-25T01:43:12.942Z,0.00
2023-01-25T01:44:13.260Z,0.00
2023-01-25T01:45:13.643Z,0.00
2023-01-25T01:46:14.082Z,0.00
2023-01-25T01:47:14.387Z,0.00
2023-01-25T01:48:14.786Z,0.00
2023-01-25T01:49:15.116Z,0.00
2023-01-25T01:50:15.466Z,0.00
2023-01-25T01:51:17.106Z,0.00
2023-01-25T01:52:16.226Z,0.00
2023-01-25T01:53:16.615Z,0.00
2023-01-25T01:54:16.924Z,0.00
2023-01-25T01:55:17.302Z,0.00
2023-01-25T01:56:17.704Z,0.00
2023-01-25T01:57:18.036Z,0.00
2023-01-25T01:58:18.428Z,0.00
2023-01-25T01:59:18.765Z,0.00
2023-01-25T02:00:19.118Z,0.00
2023-01-25T02:01:19.470Z,0.00
2023-01-25T02:02:19.900Z,0.00
2023-01-25T02:03:20.250Z,0.00
2023-01-25T02:04:20.544Z,0.00
2023-01-25T02:05:20.934Z,0.00
2023-01-25T02:06:21.325Z,0.00
2023-01-25T02:07:21.643Z,0.00
2023-01-25T02:08:22.071Z,0.00
2023-01-25T02:09:22.388Z,0.00
2023-01-25T02:10:22.749Z,0.00
2023-01-25T02:11:23.103Z,0.00
2023-01-25T02:12:23.493Z,0.00
2023-01-25T02:13:23.875Z,0.00
2023-01-25T02:14:24.193Z,0.00
2023-01-25T02:15:24.538Z,0.00
2023-01-25T02:16:24.896Z,0.00
2023-01-25T02:17:25.244Z,0.00
2023-01-25T02:18:25.639Z,0.00
2023-01-25T02:19:25.971Z,0.00
2023-01-25T02:20:26.419Z,0.00
2023-01-25T02:21:26.695Z,0.00
2023-01-25T02:22:27.078Z,0.00
2023-01-25T02:23:27.451Z,0.00
2023-01-25T02:24:27.849Z,0.00
2023-01-25T02:25:28.155Z,0.00
2023-01-25T02:26:28.548Z,0.00
2023-01-25T02:27:28.872Z,0.00
2023-01-25T02:28:29.258Z,0.00
2023-01-25T02:29:29.621Z,0.00
2023-01-25T02:30:29.962Z,0.00
2023-01-25T02:31:30.478Z,0.00
2023-01-25T02:32:30.691Z,0.00
2023-01-25T02:33:31.097Z,0.00
2023-01-25T02:34:31.393Z,0.00
2023-01-25T02:35:31.741Z,0.00
2023-01-25T02:36:32.105Z,0.00
2023-01-25T02:37:32.464Z,0.00
2023-01-25T02:38:32.845Z,0.00
2023-01-25T02:39:33.167Z,0.00
2023-01-25T02:40:33.510Z,0.00
2023-01-25T02:41:33.867Z,0.00
2023-01-25T02:42:34.259Z,0.00
2023-01-25T02:43:34.596Z,0.00
2023-01-25T02:44:34.973Z,0.00
2023-01-25T02:45:35.318Z,0.00
2023-01-25T02:46:35.740Z,0.00
2023-01-25T02:47:36.040Z,0.00
2023-01-25T02:48:36.411Z,0.00
2023-01-25T02:49:36.776Z,0.00
2023-01-25T02:50:37.131Z,0.00
2023-01-25T02:51:37.490Z,0.00
2023-01-25T02:52:37.848Z,0.00
2023-01-25T02:53:38.249Z,0.00
2023-01-25T02:54:38.567Z,0.00
2023-01-25T02:55:38.973Z,0.00
2023-01-25T02:56:39.259Z,0.00
2023-01-25T02:57:39.633Z,0.00
2023-01-25T02:58:40.014Z,0.00
2023-01-25T02:59:40.464Z,0.00
2023-01-25T03:00:40.689Z,0.00
2023-01-25T03:01:41.216Z,0.00
2023-01-25T03:02:41.555Z,0.00
2023-01-25T03:03:41.826Z,0.00
2023-01-25T03:04:42.143Z,0.00
2023-01-25T03:05:42.554Z,0.00
2023-01-25T03:06:42.884Z,0.00
2023-01-25T03:07:43.245Z,0.00
2023-01-25T03:08:43.623Z,0.00
2023-01-25T03:09:43.985Z,0.00
2023-01-25T03:10:44.374Z,0.00
2023-01-25T03:11:44.690Z,0.00
2023-01-25T03:12:45.077Z,0.00
2023-01-25T03:13:45.439Z,0.00
2023-01-25T03:14:45.791Z,0.00
2023-01-25T03:15:46.171Z,0.00
2023-01-25T03:16:46.616Z,0.00
2023-01-25T03:17:46.874Z,0.00
2023-01-25T03:18:47.288Z,0.00
2023-01-25T03:19:47.601Z,0.00
2023-01-25T03:20:47.959Z,0.00
2023-01-25T03:21:48.335Z,0.00
2023-01-25T03:22:48.677Z,0.00
2023-01-25T03:23:49.148Z,0.00
2023-01-25T03:24:49.416Z,0.00
2023-01-25T03:25:49.764Z,0.00
2023-01-25T03:26:50.100Z,0.00
2023-01-25T03:27:50.451Z,0.00
2023-01-25T03:28:50.895Z,0.00
2023-01-25T03:29:51.216Z,0.00
2023-01-25T03:30:51.547Z,0.00
2023-01-25T03:31:52.081Z,0.00
2023-01-25T03:32:52.255Z,0.00
2023-01-25T03:33:52.624Z,0.00
2023-01-25T03:34:52.979Z,0.00
2023-01-25T03:35:53.345Z,0.00
2023-01-25T03:36:53.659Z,0.00
2023-01-25T03:37:54.053Z,0.00
2023-01-25T03:38:54.433Z,0.00
2023-01-25T03:39:54.801Z,0.00
2023-01-25T03:40:55.123Z,0.00
2023-01-25T03:41:55.464Z,0.00
2023-01-25T03:42:55.842Z,0.00
2023-01-25T03:43:56.195Z,0.00
2023-01-25T03:44:56.567Z,0.00
2023-01-25T03:45:56.894Z,0.00
2023-01-25T03:46:57.303Z,0.00
2023-01-25T03:47:57.622Z,0.00
2023-01-25T03:48:58.003Z,0.00
2023-01-25T03:49:58.356Z,0.00
2023-01-25T03:50:58.785Z,0.00
2023-01-25T03:51:59.085Z,0.00
2023-01-25T03:52:59.410Z,0.00
2023-01-25T03:53:59.787Z,0.00
2023-01-25T03:55:00.153Z,0.00
2023-01-25T03:56:00.610Z,0.00
2023-01-25T03:57:00.858Z,0.00
2023-01-25T03:58:01.207Z,0.00
2023-01-25T03:59:01.602Z,0.00
2023-01-25T04:00:01.963Z,0.00
2023-01-25T04:01:02.370Z,0.00
2023-01-25T04:02:02.770Z,0.00
2023-01-25T04:03:03.019Z,0.00
2023-01-25T04:04:03.478Z,0.00
2023-01-25T04:05:03.770Z,0.00
2023-01-25T04:06:04.137Z,0.00
2023-01-25T04:07:04.541Z,0.00
2023-01-25T04:08:04.847Z,0.00
2023-01-25T04:09:05.224Z,0.00
2023-01-25T04:10:05.599Z,0.00
2023-01-25T04:11:05.959Z,0.00
2023-01-25T04:12:06.322Z,0.00
2023-01-25T04:13:06.701Z,0.00
2023-01-25T04:14:07.101Z,0.00
2023-01-25T04:15:07.827Z,0.00
2023-01-25T04:16:07.801Z,0.00
2023-01-25T04:17:08.165Z,0.00
2023-01-25T04:18:08.551Z,0.00
2023-01-25T04:19:08.902Z,0.00
2023-01-25T04:20:09.249Z,0.00
2023-01-25T04:21:09.599Z,0.00
2023-01-25T04:22:09.956Z,0.00
2023-01-25T04:23:10.316Z,0.00
2023-01-25T04:24:10.896Z,0.00
2023-01-25T04:25:11.457Z,0.00
2023-01-25T04:26:11.428Z,0.00
2023-01-25T04:27:11.774Z,0.00
2023-01-25T04:28:12.134Z,0.00
2023-01-25T04:29:12.597Z,0.00
2023-01-25T04:30:12.870Z,0.00
2023-01-25T04:31:13.341Z,0.00
2023-01-25T04:32:13.726Z,0.00
2023-01-25T04:33:13.967Z,0.00
2023-01-25T04:34:14.399Z,0.00
2023-01-25T04:35:14.733Z,0.00
2023-01-25T04:36:15.040Z,0.00
2023-01-25T04:37:15.431Z,0.00
2023-01-25T04:38:15.783Z,0.00
2023-01-25T04:39:16.138Z,0.00
2023-01-25T04:40:16.487Z,0.00
2023-01-25T04:41:16.844Z,0.00
2023-01-25T04:42:17.203Z,0.00
2023-01-25T04:43:17.561Z,0.00
2023-01-25T04:44:17.947Z,0.00
2023-01-25T04:45:18.299Z,0.00
2023-01-25T04:46:18.702Z,0.00
2023-01-25T04:47:19.056Z,0.00
2023-01-25T04:48:19.399Z,0.00
2023-01-25T04:49:19.778Z,0.00
2023-01-25T04:50:20.096Z,0.00
2023-01-25T04:51:20.475Z,0.00
2023-01-25T04:52:20.869Z,0.00
2023-01-25T04:53:21.174Z,0.00
2023-01-25T04:54:21.545Z,0.00
2023-01-25T04:55:21.905Z,0.00
2023-01-25T04:56:22.302Z,0.00
2023-01-25T04:57:22.723Z,0.00
2023-01-25T04:58:23.005Z,0.00
2023-01-25T04:59:23.388Z,0.00
2023-01-25T05:00:23.691Z,0.00
2023-01-25T05:01:24.132Z,0.00
2023-01-25T05:02:24.510Z,0.00
2023-01-25T05:03:26.750Z,0.00
2023-01-25T05:04:25.252Z,0.00
2023-01-25T05:05:25.539Z,0.00
2023-01-25T05:06:25.896Z,0.00
2023-01-25T05:07:26.269Z,0.00
2023-01-25T05:08:26.581Z,0.00
2023-01-25T05:09:26.955Z,0.00
2023-01-25T05:10:27.294Z,0.00
2023-01-25T05:11:27.672Z,0.00
2023-01-25T05:12:28.024Z,0.00
2023-01-25T05:13:28.424Z,0.00
2023-01-25T05:14:28.755Z,0.00
2023-01-25T05:15:29.088Z,0.00
2023-01-25T05:16:29.521Z,0.00
2023-01-25T05:17:29.806Z,0.00
2023-01-25T05:18:42.624Z,0.00
2023-01-25T05:19:30.554Z,0.00
2023-01-25T05:20:30.890Z,0.00
2023-01-25T05:21:31.307Z,0.00
2023-01-25T05:22:31.608Z,0.00
2023-01-25T05:23:31.973Z,0.00
2023-01-25T05:24:32.366Z,0.00
2023-01-25T05:25:32.757Z,0.00
2023-01-25T05:26:33.066Z,0.00
2023-01-25T05:27:33.456Z,0.00
2023-01-25T05:28:33.792Z,0.00
2023-01-25T05:29:34.201Z,0.00
2023-01-25T05:30:34.610Z,0.00
2023-01-25T05:31:34.934Z,0.00
2023-01-25T05:32:35.245Z,0.00
2023-01-25T05:33:35.589Z,0.00
2023-01-25T05:34:35.961Z,0.00
2023-01-25T05:35:36.303Z,0.00
2023-01-25T05:36:36.707Z,0.00
2023-01-25T05:37:37.052Z,0.00
2023-01-25T05:38:37.381Z,0.00
2023-01-25T05:39:37.758Z,0.00
2023-01-25T05:40:38.093Z,0.00
2023-01-25T05:41:38.460Z,0.00
2023-01-25T05:42:38.810Z,0.00
2023-01-25T05:43:39.187Z,0.00
2023-01-25T05:44:39.516Z,0.00
2023-01-25T05:45:39.872Z,0.00
2023-01-25T05:46:40.253Z,0.00
2023-01-25T05:47:40.600Z,0.00
2023-01-25T05:48:40.950Z,0.00
2023-01-25T05:49:41.377Z,0.00
2023-01-25T05:50:41.698Z,0.00
2023-01-25T05:51:42.061Z,0.00
2023-01-25T05:52:42.414Z,0.00
2023-01-25T05:53:42.775Z,0.00
2023-01-25T05:54:43.171Z,0.00
2023-01-25T05:55:43.518Z,0.00
2023-01-25T05:56:43.862Z,0.00
2023-01-25T05:57:44.202Z,0.00
2023-01-25T05:58:44.605Z,0.00
2023-01-25T05:59:44.920Z,0.00
2023-01-25T06:00:45.296Z,0.00
2023-01-25T06:01:45.647Z,0.00
2023-01-25T06:02:46.104Z,0.00
2023-01-25T06:03:46.516Z,0.00
2023-01-25T06:04:46.829Z,0.00
2023-01-25T06:05:47.140Z,0.00
2023-01-25T06:06:47.482Z,0.00
2023-01-25T06:07:47.831Z,0.00
2023-01-25T06:08:48.209Z,0.00
2023-01-25T06:09:48.628Z,0.00
2023-01-25T06:10:48.943Z,0.00
2023-01-25T06:11:49.307Z,0.00
2023-01-25T06:12:49.660Z,0.00
2023-01-25T06:13:50.017Z,0.00
2023-01-25T06:14:50.420Z,0.00
2023-01-25T06:15:50.788Z,0.00
2023-01-25T06:16:51.156Z,0.00
2023-01-25T06:17:51.479Z,0.00
2023-01-25T06:18:51.848Z,0.00
2023-01-25T06:19:52.205Z,0.00
2023-01-25T06:20:52.584Z,0.00
2023-01-25T06:21:52.923Z,0.00
2023-01-25T06:22:53.289Z,0.00
2023-01-25T06:23:53.660Z,0.00
2023-01-25T06:24:54.048Z,0.00
2023-01-25T06:25:54.358Z,0.00
2023-01-25T06:26:54.738Z,0.00
2023-01-25T06:27:55.091Z,0.00
2023-01-25T06:28:55.441Z,0.00
2023-01-25T06:29:55.812Z,0.00
2023-01-25T06:30:56.172Z,0.00
2023-01-25T06:31:56.559Z,0.00
2023-01-25T06:32:57.096Z,0.00
2023-01-25T06:33:57.360Z,0.00
2023-01-25T06:34:57.636Z,0.00
2023-01-25T06:35:57.982Z,0.00
2023-01-25T06:36:58.359Z,0.00
2023-01-25T06:37:58.732Z,0.00
2023-01-25T06:38:59.050Z,0.00
2023-01-25T06:39:59.434Z,0.00
2023-01-25T06:40:59.762Z,0.00
2023-01-25T06:42:00.144Z,0.00
2023-01-25T06:43:00.493Z,0.00
2023-01-25T06:44:00.876Z,0.00
2023-01-25T06:45:01.271Z,0.00
2023-01-25T06:46:01.624Z,0.00
2023-01-25T06:47:01.961Z,0.00
2023-01-25T06:48:02.367Z,0.00
2023-01-25T06:49:02.675Z,0.00
2023-01-25T06:50:03.061Z,0.00
2023-01-25T06:51:03.455Z,0.00
2023-01-25T06:52:03.758Z,0.00
2023-01-25T06:53:04.115Z,0.00
2023-01-25T06:54:04.543Z,0.00
2023-01-25T06:55:04.852Z,0.00
2023-01-25T06:56:05.220Z,0.00
2023-01-25T06:57:05.555Z,0.00
2023-01-25T06:58:05.907Z,0.00
2023-01-25T06:59:06.283Z,0.00
2023-01-25T07:00:06.655Z,0.00
2023-01-25T07:01:07.031Z,0.00
2023-01-25T07:02:07.531Z,0.00
2023-01-25T07:03:07.826Z,0.00
2023-01-25T07:04:09.005Z,0.00
2023-01-25T07:05:08.941Z,0.00
2023-01-25T07:06:08.797Z,1.00
2023-01-25T07:07:09.250Z,0.00
2023-01-25T07:08:09.553Z,0.00
2023-01-25T07:09:09.951Z,0.00
2023-01-25T07:10:10.072Z,1.00
2023-01-25T07:11:10.233Z,1.00
2023-01-25T07:12:10.400Z,1.00
2023-01-25T07:13:10.619Z,1.00
2023-01-25T07:14:10.740Z,1.00
2023-01-25T07:15:11.287Z,1.00
2023-01-25T07:16:11.201Z,1.00
2023-01-25T07:17:11.384Z,2.00
2023-01-25T07:18:16.524Z,2.00
2023-01-25T07:19:11.823Z,2.00
2023-01-25T07:20:12.254Z,0.00
2023-01-25T07:21:12.621Z,0.00
2023-01-25T07:22:12.804Z,2.00
2023-01-25T07:23:12.986Z,2.00
2023-01-25T07:24:13.347Z,2.00
2023-01-25T07:25:13.570Z,2.00
2023-01-25T07:26:13.720Z,2.00
2023-01-25T07:27:13.887Z,3.00
2023-01-25T07:28:14.044Z,1.00
2023-01-25T07:29:14.235Z,3.00
2023-01-25T07:30:14.417Z,3.00
2023-01-25T07:31:14.747Z,3.00
2023-01-25T07:32:14.941Z,2.00
2023-01-25T07:33:15.158Z,2.00
2023-01-25T07:34:15.421Z,2.00
2023-01-25T07:35:15.587Z,2.00
2023-01-25T07:36:15.716Z,4.00
2023-01-25T07:37:16.029Z,4.00
2023-01-25T07:38:16.206Z,5.00
2023-01-25T07:39:16.488Z,7.00
2023-01-25T07:40:16.706Z,7.00
2023-01-25T07:41:16.876Z,5.00
2023-01-25T07:42:17.083Z,5.00
2023-01-25T07:43:17.384Z,7.00
2023-01-25T07:44:17.563Z,7.00
2023-01-25T07:45:17.740Z,4.00
2023-01-25T07:46:17.884Z,4.00
2023-01-25T07:47:18.077Z,6.00
2023-01-25T07:48:18.360Z,3.00
2023-01-25T07:49:18.551Z,5.00
2023-01-25T07:50:18.819Z,5.00
2023-01-25T07:51:18.972Z,5.00
2023-01-25T07:52:19.161Z,1.00
2023-01-25T07:53:19.321Z,2.00
2023-01-25T07:54:19.459Z,2.00
2023-01-25T07:55:19.687Z,2.00
2023-01-25T07:56:19.815Z,6.00
2023-01-25T07:57:19.975Z,6.00
2023-01-25T07:58:20.140Z,8.00
2023-01-25T07:59:20.340Z,12.00
2023-01-25T08:00:20.507Z,12.00
2023-01-25T08:01:20.666Z,11.00
2023-01-25T08:02:20.851Z,11.00
2023-01-25T08:03:21.037Z,9.00
2023-01-25T08:04:21.223Z,8.00
2023-01-25T08:05:21.516Z,10.00
2023-01-25T08:06:21.802Z,10.00
2023-01-25T08:07:22.046Z,10.00
2023-01-25T08:08:22.231Z,12.00
2023-01-25T08:09:22.405Z,9.00
2023-01-25T08:10:22.763Z,9.00
2023-01-25T08:11:22.880Z,9.00
2023-01-25T08:12:23.072Z,6.00
2023-01-25T08:13:23.217Z,8.00
2023-01-25T08:14:23.402Z,13.00
2023-01-25T08:15:23.595Z,10.00
2023-01-25T08:16:23.761Z,12.00
2023-01-25T08:17:24.030Z,11.00
2023-01-25T08:18:24.239Z,16.00
2023-01-25T08:19:24.396Z,16.00
2023-01-25T08:20:24.664Z,13.00
2023-01-25T08:21:24.736Z,15.00
2023-01-25T08:22:25.022Z,12.00
2023-01-25T08:23:25.323Z,14.00
2023-01-25T08:24:25.734Z,15.00
2023-01-25T08:25:25.688Z,7.00
2023-01-25T08:26:25.828Z,12.00
2023-01-25T08:27:26.007Z,14.00
2023-01-25T08:28:26.181Z,14.00
2023-01-25T08:29:26.368Z,14.00
2023-01-25T08:30:26.599Z,15.00
2023-01-25T08:31:26.909Z,23.00
2023-01-25T08:32:27.023Z,19.00
2023-01-25T08:33:27.285Z,19.00
2023-01-25T08:34:27.483Z,19.00
2023-01-25T08:35:27.679Z,19.00
2023-01-25T08:36:27.868Z,23.00
2023-01-25T08:37:28.007Z,19.00
2023-01-25T08:38:28.191Z,19.00
2023-01-25T08:39:28.365Z,19.00
2023-01-25T08:40:28.592Z,18.00
2023-01-25T08:41:28.725Z,18.00
2023-01-25T08:42:28.895Z,21.00
2023-01-25T08:43:29.211Z,21.00
2023-01-25T08:44:29.351Z,20.00
2023-01-25T08:45:29.546Z,19.00
2023-01-25T08:46:31.342Z,20.00
2023-01-25T08:47:29.895Z,20.00
2023-01-25T08:48:30.196Z,19.00
2023-01-25T08:49:30.466Z,19.00
2023-01-25T08:50:30.682Z,20.00
2023-01-25T08:51:30.790Z,20.00
2023-01-25T08:52:30.973Z,20.00
2023-01-25T08:53:31.201Z,20.00
2023-01-25T08:54:31.482Z,23.00
2023-01-25T08:55:31.643Z,14.00
2023-01-25T08:56:31.826Z,16.00
2023-01-25T08:57:32.102Z,16.00
2023-01-25T08:58:32.287Z,16.00
2023-01-25T08:59:32.469Z,18.00
2023-01-25T09:00:32.652Z,19.00
2023-01-25T09:01:32.812Z,18.00
2023-01-25T09:02:33.055Z,27.00
2023-01-25T09:03:33.323Z,26.00
2023-01-25T09:04:33.471Z,24.00
2023-01-25T09:05:33.797Z,25.00
2023-01-25T09:06:33.927Z,25.00
2023-01-25T09:07:34.091Z,23.00
2023-01-25T09:08:34.379Z,26.00
2023-01-25T09:09:34.591Z,24.00
2023-01-25T09:10:34.803Z,26.00
2023-01-25T09:11:34.919Z,25.00
2023-01-25T09:12:35.103Z,24.00
2023-01-25T09:13:35.259Z,25.00
2023-01-25T09:14:35.479Z,25.00
2023-01-25T09:15:35.762Z,23.00
2023-01-25T09:16:35.931Z,24.00
2023-01-25T09:17:36.092Z,26.00
2023-01-25T09:18:36.637Z,23.00
2023-01-25T09:19:36.564Z,23.00
2023-01-25T09:20:36.781Z,26.00
2023-01-25T09:21:36.937Z,26.00
2023-01-25T09:22:37.205Z,26.00
2023-01-25T09:23:50.322Z,26.00
2023-01-25T09:24:37.852Z,26.00
2023-01-25T09:25:38.100Z,26.00
2023-01-25T09:26:38.268Z,25.00
2023-01-25T09:27:38.434Z,27.00
2023-01-25T09:28:38.614Z,27.00
2023-01-25T09:29:39.671Z,29.00
2023-01-25T09:30:46.895Z,26.00
2023-01-25T09:31:39.575Z,26.00
2023-01-25T09:32:39.600Z,28.00
2023-01-25T09:33:39.708Z,25.00
2023-01-25T09:34:39.896Z,28.00
2023-01-25T09:35:40.180Z,30.00
2023-01-25T09:36:40.384Z,32.00
2023-01-25T09:37:40.547Z,31.00
2023-01-25T09:38:40.807Z,31.00
2023-01-25T09:39:40.995Z,30.00
2023-01-25T09:40:41.246Z,36.00
2023-01-25T09:41:41.461Z,33.00
2023-01-25T09:42:41.641Z,33.00
2023-01-25T09:43:41.833Z,33.00
2023-01-25T09:44:41.984Z,32.00
2023-01-25T09:45:42.171Z,34.00
2023-01-25T09:46:42.331Z,39.00
2023-01-25T09:47:42.554Z,36.00
2023-01-25T09:48:42.699Z,40.00
2023-01-25T09:49:42.856Z,40.00
2023-01-25T09:50:43.072Z,36.00
2023-01-25T09:51:43.215Z,38.00
2023-01-25T09:52:43.409Z,29.00
2023-01-25T09:53:43.679Z,31.00
2023-01-25T09:54:46.962Z,31.00
2023-01-25T09:55:44.068Z,31.00
2023-01-25T09:56:44.259Z,35.00
2023-01-25T09:57:44.507Z,39.00
2023-01-25T09:58:44.693Z,36.00
2023-01-25T09:59:44.845Z,40.00
2023-01-25T10:00:45.046Z,40.00
2023-01-25T10:01:45.413Z,40.00
2023-01-25T10:02:45.671Z,39.00
2023-01-25T10:03:45.767Z,40.00
2023-01-25T10:04:45.997Z,40.00
2023-01-25T10:05:46.175Z,41.00
2023-01-25T10:06:59.731Z,31.00
2023-01-25T10:07:46.708Z,31.00
2023-01-25T10:08:46.925Z,34.00
2023-01-25T10:09:47.120Z,34.00
2023-01-25T10:10:47.405Z,40.00
2023-01-25T10:11:47.639Z,37.00
2023-01-25T10:12:47.823Z,40.00
2023-01-25T10:13:48.103Z,41.00
2023-01-25T10:14:48.290Z,38.00
2023-01-25T10:15:48.675Z,40.00
2023-01-25T10:16:48.870Z,39.00
2023-01-25T10:17:49.048Z,37.00
2023-01-25T10:18:49.258Z,39.00
2023-01-25T10:19:49.529Z,40.00
2023-01-25T10:20:49.697Z,40.00
2023-01-25T10:21:49.991Z,44.00
2023-01-25T10:22:50.186Z,40.00
2023-01-25T10:23:50.326Z,40.00
2023-01-25T10:24:50.510Z,40.00
2023-01-25T10:25:50.719Z,37.00
2023-01-25T10:26:50.863Z,39.00
2023-01-25T10:27:51.147Z,39.00
2023-01-25T10:28:51.528Z,39.00
2023-01-25T10:29:51.615Z,39.00
2023-01-25T10:30:52.136Z,39.00
2023-01-25T10:31:52.105Z,39.00
2023-01-25T10:32:56.101Z,39.00
2023-01-25T10:33:52.432Z,37.00
2023-01-25T10:34:57.227Z,37.00
2023-01-25T10:35:52.953Z,40.00
2023-01-25T10:36:53.215Z,38.00
2023-01-25T10:37:53.374Z,39.00
2023-01-25T10:38:53.545Z,39.00
2023-01-25T10:39:53.741Z,39.00
2023-01-25T10:40:53.934Z,39.00
2023-01-25T10:41:54.185Z,38.00
2023-01-25T10:42:54.364Z,37.00
2023-01-25T10:43:54.548Z,39.00
2023-01-25T10:44:54.729Z,38.00
2023-01-25T10:45:55.014Z,37.00
2023-01-25T10:46:55.296Z,39.00
2023-01-25T10:47:55.577Z,39.00
2023-01-25T10:48:55.751Z,40.00
2023-01-25T10:49:56.042Z,44.00
2023-01-25T10:50:56.237Z,43.00
2023-01-25T10:51:56.389Z,42.00
2023-01-25T10:52:56.566Z,34.00
2023-01-25T10:53:56.873Z,39.00
2023-01-25T10:54:57.033Z,43.00
2023-01-25T10:55:57.349Z,44.00
2023-01-25T10:56:57.525Z,43.00
2023-01-25T10:57:57.718Z,44.00
2023-01-25T10:58:57.851Z,44.00
2023-01-25T10:59:58.031Z,44.00
2023-01-25T11:00:58.253Z,47.00
2023-01-25T11:01:58.577Z,45.00
2023-01-25T11:02:58.745Z,49.00
2023-01-25T11:03:58.867Z,46.00
2023-01-25T11:04:59.043Z,44.00
2023-01-25T11:05:59.282Z,44.00
2023-01-25T11:06:59.406Z,44.00
2023-01-25T11:07:59.554Z,47.00
2023-01-25T11:08:59.735Z,45.00
2023-01-25T11:09:59.933Z,44.00
2023-01-25T11:11:00.132Z,41.00
2023-01-25T11:12:00.377Z,48.00
2023-01-25T11:13:00.570Z,45.00
2023-01-25T11:14:00.718Z,52.00
2023-01-25T11:15:00.929Z,57.00
2023-01-25T11:16:01.136Z,49.00
2023-01-25T11:17:01.249Z,48.00
2023-01-25T11:18:01.431Z,45.00
2023-01-25T11:19:01.611Z,45.00
2023-01-25T11:20:01.799Z,46.00
2023-01-25T11:21:01.968Z,44.00
2023-01-25T11:22:02.167Z,42.00
2023-01-25T11:23:02.313Z,40.00
2023-01-25T11:24:03.589Z,43.00
2023-01-25T11:25:02.708Z,43.00
2023-01-25T11:26:02.875Z,41.00
2023-01-25T11:27:03.008Z,44.00
2023-01-25T11:28:03.232Z,47.00
2023-01-25T11:29:03.486Z,49.00
2023-01-25T11:30:03.638Z,45.00
2023-01-25T11:31:03.927Z,46.00
2023-01-25T11:32:04.060Z,45.00
2023-01-25T11:33:04.172Z,44.00
2023-01-25T11:34:04.340Z,46.00
2023-01-25T11:35:04.585Z,43.00
2023-01-25T11:36:04.717Z,41.00
2023-01-25T11:37:04.868Z,41.00
2023-01-25T11:38:05.069Z,39.00
2023-01-25T11:39:05.228Z,39.00
2023-01-25T11:40:05.393Z,37.00
2023-01-25T11:41:05.588Z,37.00
2023-01-25T11:42:05.796Z,34.00
2023-01-25T11:43:06.052Z,39.00
2023-01-25T11:44:06.357Z,34.00
2023-01-25T11:45:06.497Z,34.00
2023-01-25T11:46:06.761Z,42.00
2023-01-25T11:47:06.988Z,43.00
2023-01-25T11:48:07.149Z,40.00
2023-01-25T11:49:13.942Z,44.00
2023-01-25T11:50:08.763Z,44.00
2023-01-25T11:51:07.824Z,40.00
2023-01-25T11:52:08.073Z,40.00
2023-01-25T11:53:08.245Z,44.00
2023-01-25T11:54:08.626Z,37.00
2023-01-25T11:55:08.716Z,37.00
2023-01-25T11:56:09.001Z,37.00
2023-01-25T11:57:09.164Z,37.00
2023-01-25T11:58:09.360Z,37.00
2023-01-25T11:59:09.536Z,41.00
2023-01-25T12:00:10.290Z,41.00
2023-01-25T12:01:10.016Z,41.00
2023-01-25T12:02:10.288Z,41.00
2023-01-25T12:03:10.628Z,39.00
2023-01-25T12:04:10.959Z,37.00
2023-01-25T12:05:21.061Z,41.00
2023-01-25T12:06:11.371Z,42.00
2023-01-25T12:07:11.621Z,43.00
2023-01-25T12:08:11.787Z,40.00
2023-01-25T12:09:11.950Z,42.00
2023-01-25T12:10:12.522Z,42.00
2023-01-25T12:11:12.458Z,42.00
2023-01-25T12:12:12.748Z,40.00
2023-01-25T12:13:12.895Z,40.00
2023-01-25T12:14:13.058Z,44.00
2023-01-25T12:15:13.241Z,40.00
2023-01-25T12:16:13.489Z,40.00
2023-01-25T12:17:13.588Z,36.00
2023-01-25T12:18:13.881Z,40.00
2023-01-25T12:19:14.038Z,44.00
2023-01-25T12:20:14.232Z,36.00
2023-01-25T12:21:22.920Z,35.00
2023-01-25T12:22:14.597Z,37.00
2023-01-25T12:23:14.863Z,36.00
2023-01-25T12:24:15.079Z,40.00
2023-01-25T12:25:15.336Z,39.00
2023-01-25T12:26:15.509Z,39.00
2023-01-25T12:27:15.695Z,38.00
2023-01-25T12:28:15.844Z,37.00
2023-01-25T12:29:16.047Z,36.00
2023-01-25T12:30:16.311Z,34.00
2023-01-25T12:31:16.628Z,36.00
2023-01-25T12:32:16.843Z,40.00
2023-01-25T12:33:17.113Z,36.00
2023-01-25T12:34:17.381Z,40.00
2023-01-25T12:35:17.674Z,36.00
2023-01-25T12:36:17.857Z,36.00
2023-01-25T12:37:18.013Z,40.00
2023-01-25T12:38:18.200Z,36.00
2023-01-25T12:39:18.352Z,31.00
2023-01-25T12:40:18.585Z,39.00
2023-01-25T12:41:18.889Z,34.00
2023-01-25T12:42:19.008Z,30.00
2023-01-25T12:43:19.175Z,36.00
2023-01-25T12:44:19.372Z,30.00
2023-01-25T12:45:19.655Z,33.00
2023-01-25T12:46:19.881Z,33.00
2023-01-25T12:47:20.120Z,31.00
2023-01-25T12:48:20.285Z,32.00
2023-01-25T12:49:20.461Z,29.00
2023-01-25T12:50:20.707Z,29.00
2023-01-25T12:51:20.964Z,32.00
2023-01-25T12:52:21.252Z,31.00
2023-01-25T12:53:21.513Z,32.00
2023-01-25T12:54:21.675Z,30.00
2023-01-25T12:55:21.888Z,31.00
2023-01-25T12:56:22.060Z,28.00
2023-01-25T12:57:22.342Z,28.00
2023-01-25T12:58:32.799Z,26.00
2023-01-25T12:59:22.845Z,26.00
2023-01-25T13:00:23.007Z,27.00
2023-01-25T13:01:23.251Z,25.00
2023-01-25T13:02:23.328Z,27.00
2023-01-25T13:03:23.608Z,27.00
2023-01-25T13:04:23.892Z,27.00
2023-01-25T13:05:24.104Z,25.00
2023-01-25T13:06:24.297Z,24.00
2023-01-25T13:07:24.425Z,25.00
2023-01-25T13:08:31.717Z,27.00
2023-01-25T13:09:24.906Z,24.00
2023-01-25T13:10:25.088Z,25.00
2023-01-25T13:11:25.396Z,25.00
2023-01-25T13:12:25.573Z,27.00